sensor_id;sensor_type;location;lat;lon;timestamp;P1;durP1;ratioP1;P2;durP2;ratioP2
28007;SDS011;15333;50.010;20.020;2023-04-01T00:01:30;5.03;;;1.52;;
28007;SDS011;15333;50.010;20.020;2023-04-01T00:04:31;4.15;;;1.70;;
28007;SDS011;15333;50.010;20.020;2023-04-01T00:07:32;5.20;;;2.00;;
28007;SDS011;15333;50.010;20.020;2023-04-01T00:10:33;3.72;;;1.45;;
28007;SDS011;15333;50.010;20.020;2023-04-01T00:13:34;4.00;;;1.52;;
28007;SDS011;15333;50.010;20.020;2023-04-01T00:16:36;4.55;;;2.13;;
28007;SDS011;15333;50.010;20.020;2023-04-01T00:19:37;4.50;;;1.92;;
28007;SDS011;15333;50.010;20.020;2023-04-01T00:22:38;4.15;;;2.28;;
28007;SDS011;15333;50.010;20.020;2023-04-01T00:25:38;3.70;;;1.70;;
28007;SDS011;15333;50.010;20.020;2023-04-01T00:28:40;3.60;;;1.92;;
28007;SDS011;15333;50.010;20.020;2023-04-01T00:31:41;3.33;;;1.80;;
28007;SDS011;15333;50.010;20.020;2023-04-01T00:34:42;3.10;;;1.85;;
28007;SDS011;15333;50.010;20.020;2023-04-01T00:37:44;8.85;;;2.22;;
28007;SDS011;15333;50.010;20.020;2023-04-01T00:40:46;4.63;;;1.77;;
28007;SDS011;15333;50.010;20.020;2023-04-01T00:43:48;4.80;;;1.90;;
28007;SDS011;15333;50.010;20.020;2023-04-01T00:46:50;4.65;;;1.67;;
28007;SDS011;15333;50.010;20.020;2023-04-01T00:49:53;8.20;;;2.00;;
28007;SDS011;15333;50.010;20.020;2023-04-01T00:52:55;4.13;;;2.00;;
28007;SDS011;15333;50.010;20.020;2023-04-01T00:56:00;4.20;;;1.83;;
28007;SDS011;15333;50.010;20.020;2023-04-01T00:59:13;4.20;;;2.30;;
28007;SDS011;15333;50.010;20.020;2023-04-01T01:02:16;5.03;;;2.35;;
28007;SDS011;15333;50.010;20.020;2023-04-01T01:05:18;6.93;;;1.95;;
28007;SDS011;15333;50.010;20.020;2023-04-01T01:15:21;6.90;;;2.30;;
28007;SDS011;15333;50.010;20.020;2023-04-01T01:21:55;5.53;;;2.28;;
28007;SDS011;15333;50.010;20.020;2023-04-01T01:25:20;4.72;;;1.85;;
28007;SDS011;15333;50.010;20.020;2023-04-01T01:31:57;5.55;;;2.03;;
28007;SDS011;15333;50.010;20.020;2023-04-01T01:35:22;6.68;;;2.05;;
28007;SDS011;15333;50.010;20.020;2023-04-01T01:38:31;2.78;;;1.70;;
28007;SDS011;15333;50.010;20.020;2023-04-01T01:41:38;3.15;;;1.90;;
28007;SDS011;15333;50.010;20.020;2023-04-01T01:44:42;3.38;;;1.73;;
28007;SDS011;15333;50.010;20.020;2023-04-01T01:47:46;5.00;;;1.70;;
28007;SDS011;15333;50.010;20.020;2023-04-01T01:50:50;6.70;;;1.88;;
28007;SDS011;15333;50.010;20.020;2023-04-01T01:53:52;4.10;;;2.00;;
28007;SDS011;15333;50.010;20.020;2023-04-01T01:57:05;5.00;;;2.10;;
28007;SDS011;15333;50.010;20.020;2023-04-01T02:00:09;2.15;;;1.67;;
28007;SDS011;15333;50.010;20.020;2023-04-01T02:03:17;5.70;;;2.10;;
28007;SDS011;15333;50.010;20.020;2023-04-01T02:06:23;4.63;;;2.17;;
28007;SDS011;15333;50.010;20.020;2023-04-01T02:09:30;6.15;;;2.10;;
28007;SDS011;15333;50.010;20.020;2023-04-01T02:12:31;4.57;;;2.05;;
28007;SDS011;15333;50.010;20.020;2023-04-01T02:15:37;2.88;;;1.73;;
28007;SDS011;15333;50.010;20.020;2023-04-01T02:18:42;3.78;;;2.00;;
28007;SDS011;15333;50.010;20.020;2023-04-01T02:21:46;4.82;;;2.25;;
28007;SDS011;15333;50.010;20.020;2023-04-01T02:24:47;7.82;;;2.38;;
28007;SDS011;15333;50.010;20.020;2023-04-01T02:27:50;4.25;;;1.80;;
28007;SDS011;15333;50.010;20.020;2023-04-01T02:30:53;3.25;;;2.00;;
28007;SDS011;15333;50.010;20.020;2023-04-01T02:33:54;5.05;;;2.08;;
28007;SDS011;15333;50.010;20.020;2023-04-01T02:36:55;7.07;;;2.40;;
28007;SDS011;15333;50.010;20.020;2023-04-01T02:40:01;4.82;;;2.13;;
28007;SDS011;15333;50.010;20.020;2023-04-01T02:43:03;5.13;;;2.60;;
28007;SDS011;15333;50.010;20.020;2023-04-01T02:46:04;5.57;;;2.80;;
28007;SDS011;15333;50.010;20.020;2023-04-01T02:49:06;9.65;;;2.70;;
28007;SDS011;15333;50.010;20.020;2023-04-01T02:52:07;8.75;;;3.45;;
28007;SDS011;15333;50.010;20.020;2023-04-01T02:55:08;5.95;;;2.70;;
28007;SDS011;15333;50.010;20.020;2023-04-01T02:58:09;10.68;;;2.97;;
28007;SDS011;15333;50.010;20.020;2023-04-01T03:01:11;10.63;;;3.13;;
28007;SDS011;15333;50.010;20.020;2023-04-01T03:04:12;8.25;;;3.58;;
28007;SDS011;15333;50.010;20.020;2023-04-01T03:07:12;9.48;;;2.75;;
28007;SDS011;15333;50.010;20.020;2023-04-01T03:10:13;7.97;;;3.28;;
28007;SDS011;15333;50.010;20.020;2023-04-01T03:13:14;10.10;;;3.58;;
28007;SDS011;15333;50.010;20.020;2023-04-01T03:16:18;6.53;;;2.90;;
28007;SDS011;15333;50.010;20.020;2023-04-01T03:19:18;4.45;;;2.38;;
28007;SDS011;15333;50.010;20.020;2023-04-01T03:22:19;8.25;;;3.30;;
28007;SDS011;15333;50.010;20.020;2023-04-01T03:25:21;5.63;;;2.65;;
28007;SDS011;15333;50.010;20.020;2023-04-01T03:28:22;9.68;;;2.88;;
28007;SDS011;15333;50.010;20.020;2023-04-01T03:31:23;8.32;;;2.60;;
28007;SDS011;15333;50.010;20.020;2023-04-01T03:34:29;5.00;;;2.53;;
28007;SDS011;15333;50.010;20.020;2023-04-01T03:37:30;6.57;;;2.28;;
28007;SDS011;15333;50.010;20.020;2023-04-01T03:40:31;8.23;;;2.30;;
28007;SDS011;15333;50.010;20.020;2023-04-01T03:43:33;10.27;;;2.58;;
28007;SDS011;15333;50.010;20.020;2023-04-01T03:46:35;7.47;;;3.10;;
28007;SDS011;15333;50.010;20.020;2023-04-01T03:49:36;4.97;;;2.50;;
28007;SDS011;15333;50.010;20.020;2023-04-01T03:52:37;7.50;;;2.72;;
28007;SDS011;15333;50.010;20.020;2023-04-01T03:55:38;3.58;;;2.20;;
28007;SDS011;15333;50.010;20.020;2023-04-01T03:58:39;7.78;;;2.97;;
28007;SDS011;15333;50.010;20.020;2023-04-01T04:01:42;5.07;;;2.58;;
28007;SDS011;15333;50.010;20.020;2023-04-01T04:04:43;6.68;;;2.95;;
28007;SDS011;15333;50.010;20.020;2023-04-01T04:07:44;6.68;;;2.28;;
28007;SDS011;15333;50.010;20.020;2023-04-01T04:10:46;7.95;;;2.95;;
28007;SDS011;15333;50.010;20.020;2023-04-01T04:13:46;7.18;;;3.03;;
28007;SDS011;15333;50.010;20.020;2023-04-01T04:16:50;7.60;;;2.60;;
28007;SDS011;15333;50.010;20.020;2023-04-01T04:19:51;6.40;;;2.60;;
28007;SDS011;15333;50.010;20.020;2023-04-01T04:22:53;4.90;;;2.50;;
28007;SDS011;15333;50.010;20.020;2023-04-01T04:28:56;7.35;;;2.53;;
28007;SDS011;15333;50.010;20.020;2023-04-01T04:31:56;7.13;;;2.88;;
28007;SDS011;15333;50.010;20.020;2023-04-01T04:34:58;8.48;;;2.65;;
28007;SDS011;15333;50.010;20.020;2023-04-01T04:37:59;6.55;;;2.50;;
28007;SDS011;15333;50.010;20.020;2023-04-01T04:41:00;9.45;;;2.70;;
28007;SDS011;15333;50.010;20.020;2023-04-01T04:44:01;5.63;;;2.70;;
28007;SDS011;15333;50.010;20.020;2023-04-01T04:47:03;8.35;;;3.20;;
28007;SDS011;15333;50.010;20.020;2023-04-01T04:50:04;7.38;;;2.95;;
28007;SDS011;15333;50.010;20.020;2023-04-01T04:53:06;6.95;;;2.90;;
28007;SDS011;15333;50.010;20.020;2023-04-01T04:56:09;8.70;;;3.25;;
28007;SDS011;15333;50.010;20.020;2023-04-01T04:59:21;9.32;;;3.30;;
28007;SDS011;15333;50.010;20.020;2023-04-01T05:02:30;6.03;;;3.10;;
28007;SDS011;15333;50.010;20.020;2023-04-01T05:05:31;9.77;;;3.20;;
28007;SDS011;15333;50.010;20.020;2023-04-01T05:08:33;9.20;;;3.42;;
28007;SDS011;15333;50.010;20.020;2023-04-01T05:11:34;9.27;;;3.45;;
28007;SDS011;15333;50.010;20.020;2023-04-01T05:14:35;11.25;;;3.72;;
28007;SDS011;15333;50.010;20.020;2023-04-01T05:17:42;8.00;;;3.55;;
28007;SDS011;15333;50.010;20.020;2023-04-01T05:20:51;7.60;;;3.40;;
28007;SDS011;15333;50.010;20.020;2023-04-01T05:23:54;7.53;;;3.40;;
28007;SDS011;15333;50.010;20.020;2023-04-01T05:26:54;9.40;;;3.20;;
28007;SDS011;15333;50.010;20.020;2023-04-01T05:29:57;9.43;;;3.13;;
28007;SDS011;15333;50.010;20.020;2023-04-01T05:33:16;7.83;;;2.93;;
28007;SDS011;15333;50.010;20.020;2023-04-01T05:36:17;3.85;;;2.45;;
28007;SDS011;15333;50.010;20.020;2023-04-01T05:39:18;10.57;;;3.33;;
28007;SDS011;15333;50.010;20.020;2023-04-01T05:42:19;10.07;;;3.38;;
28007;SDS011;15333;50.010;20.020;2023-04-01T05:45:21;8.70;;;2.78;;
28007;SDS011;15333;50.010;20.020;2023-04-01T05:51:42;8.27;;;2.70;;
28007;SDS011;15333;50.010;20.020;2023-04-01T05:54:43;5.65;;;2.63;;
28007;SDS011;15333;50.010;20.020;2023-04-01T05:57:45;6.60;;;2.42;;
28007;SDS011;15333;50.010;20.020;2023-04-01T06:00:46;4.90;;;2.25;;
28007;SDS011;15333;50.010;20.020;2023-04-01T06:03:50;9.63;;;2.47;;
28007;SDS011;15333;50.010;20.020;2023-04-01T06:06:51;6.13;;;2.33;;
28007;SDS011;15333;50.010;20.020;2023-04-01T06:09:52;5.60;;;2.15;;
28007;SDS011;15333;50.010;20.020;2023-04-01T06:16:16;5.18;;;2.00;;
28007;SDS011;15333;50.010;20.020;2023-04-01T06:32:30;3.85;;;2.10;;
28007;SDS011;15333;50.010;20.020;2023-04-01T06:42:26;4.55;;;2.40;;
28007;SDS011;15333;50.010;20.020;2023-04-01T06:53:33;6.03;;;2.20;;
28007;SDS011;15333;50.010;20.020;2023-04-01T06:57:05;7.35;;;2.38;;
28007;SDS011;15333;50.010;20.020;2023-04-01T07:06:42;9.00;;;3.20;;
28007;SDS011;15333;50.010;20.020;2023-04-01T07:09:52;7.18;;;2.60;;
28007;SDS011;15333;50.010;20.020;2023-04-01T07:13:06;6.40;;;2.45;;
28007;SDS011;15333;50.010;20.020;2023-04-01T07:16:22;7.05;;;2.58;;
28007;SDS011;15333;50.010;20.020;2023-04-01T07:22:44;6.75;;;2.85;;
28007;SDS011;15333;50.010;20.020;2023-04-01T07:26:15;5.43;;;2.85;;
28007;SDS011;15333;50.010;20.020;2023-04-01T07:29:40;5.15;;;2.40;;
28007;SDS011;15333;50.010;20.020;2023-04-01T07:36:13;6.07;;;2.72;;
28007;SDS011;15333;50.010;20.020;2023-04-01T08:05:59;6.75;;;2.40;;
28007;SDS011;15333;50.010;20.020;2023-04-01T08:19:43;5.93;;;2.45;;
28007;SDS011;15333;50.010;20.020;2023-04-01T08:22:49;6.60;;;2.45;;
28007;SDS011;15333;50.010;20.020;2023-04-01T08:29:20;5.38;;;2.30;;
28007;SDS011;15333;50.010;20.020;2023-04-01T08:32:28;5.55;;;2.55;;
28007;SDS011;15333;50.010;20.020;2023-04-01T08:39:23;4.90;;;2.20;;
28007;SDS011;15333;50.010;20.020;2023-04-01T08:46:06;5.03;;;2.50;;
28007;SDS011;15333;50.010;20.020;2023-04-01T08:58:51;5.20;;;2.28;;
28007;SDS011;15333;50.010;20.020;2023-04-01T09:13:20;2.97;;;1.95;;
28007;SDS011;15333;50.010;20.020;2023-04-01T09:40:18;2.72;;;1.98;;
28007;SDS011;15333;50.010;20.020;2023-04-01T09:44:11;6.68;;;2.72;;
28007;SDS011;15333;50.010;20.020;2023-04-01T09:48:19;5.43;;;2.10;;
28007;SDS011;15333;50.010;20.020;2023-04-01T09:54:36;4.35;;;2.42;;
28007;SDS011;15333;50.010;20.020;2023-04-01T10:05:04;5.15;;;2.70;;
28007;SDS011;15333;50.010;20.020;2023-04-01T10:32:27;10.10;;;3.90;;
28007;SDS011;15333;50.010;20.020;2023-04-01T10:46:20;5.55;;;3.40;;
28007;SDS011;15333;50.010;20.020;2023-04-01T10:53:27;5.55;;;3.22;;
28007;SDS011;15333;50.010;20.020;2023-04-01T11:12:39;3.65;;;2.58;;
28007;SDS011;15333;50.010;20.020;2023-04-01T11:33:40;2.90;;;2.50;;
28007;SDS011;15333;50.010;20.020;2023-04-01T11:36:25;5.13;;;3.10;;
28007;SDS011;15333;50.010;20.020;2023-04-01T11:47:46;4.38;;;2.75;;
28007;SDS011;15333;50.010;20.020;2023-04-01T12:14:22;4.80;;;3.50;;
28007;SDS011;15333;50.010;20.020;2023-04-01T12:20:52;5.03;;;3.25;;
28007;SDS011;15333;50.010;20.020;2023-04-01T12:40:01;4.60;;;2.92;;
28007;SDS011;15333;50.010;20.020;2023-04-01T13:22:01;6.80;;;3.58;;
28007;SDS011;15333;50.010;20.020;2023-04-01T13:25:09;5.60;;;3.20;;
28007;SDS011;15333;50.010;20.020;2023-04-01T13:31:46;7.28;;;3.63;;
28007;SDS011;15333;50.010;20.020;2023-04-01T13:44:38;4.30;;;2.50;;
28007;SDS011;15333;50.010;20.020;2023-04-01T13:47:55;5.05;;;2.72;;
28007;SDS011;15333;50.010;20.020;2023-04-01T13:51:30;2.40;;;1.92;;
28007;SDS011;15333;50.010;20.020;2023-04-01T14:01:54;2.72;;;2.10;;
28007;SDS011;15333;50.010;20.020;2023-04-01T14:16:27;3.38;;;2.40;;
28007;SDS011;15333;50.010;20.020;2023-04-01T14:33:16;4.35;;;2.53;;
28007;SDS011;15333;50.010;20.020;2023-04-01T14:43:28;6.15;;;3.20;;
28007;SDS011;15333;50.010;20.020;2023-04-01T14:47:11;5.18;;;3.25;;
28007;SDS011;15333;50.010;20.020;2023-04-01T14:50:41;6.55;;;3.70;;
28007;SDS011;15333;50.010;20.020;2023-04-01T14:53:54;8.80;;;3.90;;
28007;SDS011;15333;50.010;20.020;2023-04-01T14:57:11;7.30;;;4.68;;
28007;SDS011;15333;50.010;20.020;2023-04-01T15:00:39;6.90;;;4.47;;
28007;SDS011;15333;50.010;20.020;2023-04-01T15:03:51;7.88;;;4.20;;
28007;SDS011;15333;50.010;20.020;2023-04-01T16:22:13;12.32;;;6.60;;
28007;SDS011;15333;50.010;20.020;2023-04-01T16:25:39;8.35;;;5.95;;
28007;SDS011;15333;50.010;20.020;2023-04-01T16:35:31;13.60;;;8.73;;
28007;SDS011;15333;50.010;20.020;2023-04-01T16:39:22;12.45;;;7.53;;
28007;SDS011;15333;50.010;20.020;2023-04-01T16:49:31;13.45;;;8.55;;
28007;SDS011;15333;50.010;20.020;2023-04-01T16:56:24;14.52;;;9.13;;
28007;SDS011;15333;50.010;20.020;2023-04-01T17:02:37;15.07;;;9.13;;
28007;SDS011;15333;50.010;20.020;2023-04-01T17:12:42;11.35;;;7.70;;
28007;SDS011;15333;50.010;20.020;2023-04-01T17:23:20;13.93;;;6.88;;
28007;SDS011;15333;50.010;20.020;2023-04-01T17:43:40;11.65;;;8.15;;
28007;SDS011;15333;50.010;20.020;2023-04-01T17:53:30;13.30;;;8.73;;
28007;SDS011;15333;50.010;20.020;2023-04-01T18:00:33;12.82;;;8.73;;
28007;SDS011;15333;50.010;20.020;2023-04-01T18:17:17;19.67;;;10.90;;
28007;SDS011;15333;50.010;20.020;2023-04-01T18:20:36;17.00;;;10.52;;
28007;SDS011;15333;50.010;20.020;2023-04-01T18:23:53;19.35;;;11.88;;
28007;SDS011;15333;50.010;20.020;2023-04-01T18:27:04;17.77;;;11.88;;
28007;SDS011;15333;50.010;20.020;2023-04-01T18:30:15;16.55;;;10.88;;
28007;SDS011;15333;50.010;20.020;2023-04-01T18:33:21;20.50;;;12.80;;
28007;SDS011;15333;50.010;20.020;2023-04-01T18:39:57;21.30;;;13.98;;
28007;SDS011;15333;50.010;20.020;2023-04-01T18:43:27;26.90;;;15.88;;
28007;SDS011;15333;50.010;20.020;2023-04-01T18:46:46;25.83;;;16.60;;
28007;SDS011;15333;50.010;20.020;2023-04-01T18:49:55;27.48;;;17.27;;
28007;SDS011;15333;50.010;20.020;2023-04-01T18:56:49;30.13;;;17.73;;
28007;SDS011;15333;50.010;20.020;2023-04-01T18:59:55;28.30;;;16.92;;
28007;SDS011;15333;50.010;20.020;2023-04-01T19:06:26;26.13;;;16.20;;
28007;SDS011;15333;50.010;20.020;2023-04-01T19:09:43;24.23;;;15.93;;
28007;SDS011;15333;50.010;20.020;2023-04-01T19:13:21;24.98;;;16.52;;
28007;SDS011;15333;50.010;20.020;2023-04-01T19:19:42;24.75;;;17.10;;
28007;SDS011;15333;50.010;20.020;2023-04-01T19:39:59;30.15;;;20.50;;
28007;SDS011;15333;50.010;20.020;2023-04-01T19:52:43;31.17;;;19.92;;
28007;SDS011;15333;50.010;20.020;2023-04-01T19:55:50;28.90;;;19.02;;
28007;SDS011;15333;50.010;20.020;2023-04-01T20:02:43;34.75;;;22.02;;
28007;SDS011;15333;50.010;20.020;2023-04-01T20:06:18;37.03;;;23.60;;
28007;SDS011;15333;50.010;20.020;2023-04-01T20:17:30;39.25;;;25.17;;
28007;SDS011;15333;50.010;20.020;2023-04-01T20:20:37;40.90;;;27.25;;
28007;SDS011;15333;50.010;20.020;2023-04-01T20:23:43;46.17;;;27.02;;
28007;SDS011;15333;50.010;20.020;2023-04-01T20:27:03;43.70;;;28.02;;
28007;SDS011;15333;50.010;20.020;2023-04-01T20:33:59;47.30;;;29.23;;
28007;SDS011;15333;50.010;20.020;2023-04-01T20:40:46;49.72;;;30.88;;
28007;SDS011;15333;50.010;20.020;2023-04-01T20:50:45;53.75;;;33.60;;
28007;SDS011;15333;50.010;20.020;2023-04-01T20:57:19;60.58;;;35.75;;
28007;SDS011;15333;50.010;20.020;2023-04-01T21:00:36;57.20;;;35.20;;
28007;SDS011;15333;50.010;20.020;2023-04-01T21:08:26;62.65;;;38.45;;
28007;SDS011;15333;50.010;20.020;2023-04-01T21:11:12;65.85;;;36.88;;
28007;SDS011;15333;50.010;20.020;2023-04-01T21:30:56;64.03;;;37.28;;
28007;SDS011;15333;50.010;20.020;2023-04-01T22:17:52;61.45;;;36.08;;
28007;SDS011;15333;50.010;20.020;2023-04-01T22:24:16;61.88;;;35.17;;
28007;SDS011;15333;50.010;20.020;2023-04-01T22:30:34;65.30;;;35.33;;
28007;SDS011;15333;50.010;20.020;2023-04-01T22:36:50;63.30;;;36.33;;
28007;SDS011;15333;50.010;20.020;2023-04-01T22:40:11;60.50;;;36.10;;
28007;SDS011;15333;50.010;20.020;2023-04-01T22:43:38;60.50;;;35.05;;
28007;SDS011;15333;50.010;20.020;2023-04-01T22:46:48;61.95;;;36.78;;
28007;SDS011;15333;50.010;20.020;2023-04-01T22:50:19;66.15;;;37.13;;
28007;SDS011;15333;50.010;20.020;2023-04-01T22:57:12;64.38;;;37.08;;
28007;SDS011;15333;50.010;20.020;2023-04-01T23:00:39;69.07;;;38.15;;
28007;SDS011;15333;50.010;20.020;2023-04-01T23:03:51;66.30;;;38.67;;
28007;SDS011;15333;50.010;20.020;2023-04-01T23:06:53;64.25;;;38.13;;
28007;SDS011;15333;50.010;20.020;2023-04-01T23:09:58;67.30;;;38.58;;
28007;SDS011;15333;50.010;20.020;2023-04-01T23:13:02;66.95;;;40.35;;
28007;SDS011;15333;50.010;20.020;2023-04-01T23:16:07;72.45;;;41.08;;
28007;SDS011;15333;50.010;20.020;2023-04-01T23:19:17;70.03;;;41.05;;
28007;SDS011;15333;50.010;20.020;2023-04-01T23:22:32;69.40;;;40.75;;
28007;SDS011;15333;50.010;20.020;2023-04-01T23:29:09;72.65;;;42.22;;
28007;SDS011;15333;50.010;20.020;2023-04-01T23:32:15;73.63;;;41.10;;
28007;SDS011;15333;50.010;20.020;2023-04-01T23:35:18;67.80;;;39.75;;
28007;SDS011;15333;50.010;20.020;2023-04-01T23:38:20;68.15;;;40.22;;
28007;SDS011;15333;50.010;20.020;2023-04-01T23:41:23;64.70;;;39.30;;
28007;SDS011;15333;50.010;20.020;2023-04-01T23:44:28;67.40;;;40.05;;
28007;SDS011;15333;50.010;20.020;2023-04-01T23:47:31;64.15;;;38.65;;
28007;SDS011;15333;50.010;20.020;2023-04-01T23:50:34;64.60;;;39.63;;
28007;SDS011;15333;50.010;20.020;2023-04-01T23:53:35;66.43;;;39.72;;
28007;SDS011;15333;50.010;20.020;2023-04-01T23:56:48;69.20;;;39.92;;
